sensor_id;sensor_type;location;lat;lon;timestamp;P1;durP1;ratioP1;P2;durP2;ratioP2
74791;SDS011;63319;46.046;17.802;2022-12-10T00:01:12;14.35;;;9.35;;
74791;SDS011;63319;46.046;17.802;2022-12-10T00:04:19;13.53;;;9.10;;
74791;SDS011;63319;46.046;17.802;2022-12-10T00:07:22;15.07;;;9.03;;
74791;SDS011;63319;46.046;17.802;2022-12-10T00:10:25;16.30;;;9.93;;
74791;SDS011;63319;46.046;17.802;2022-12-10T00:13:28;14.65;;;9.82;;
74791;SDS011;63319;46.046;17.802;2022-12-10T00:16:31;14.88;;;9.57;;
74791;SDS011;63319;46.046;17.802;2022-12-10T00:19:35;14.97;;;9.10;;
74791;SDS011;63319;46.046;17.802;2022-12-10T00:22:38;15.43;;;9.93;;
74791;SDS011;63319;46.046;17.802;2022-12-10T00:25:40;14.10;;;9.07;;
74791;SDS011;63319;46.046;17.802;2022-12-10T00:28:44;14.48;;;9.23;;
74791;SDS011;63319;46.046;17.802;2022-12-10T00:31:47;13.23;;;8.98;;
74791;SDS011;63319;46.046;17.802;2022-12-10T00:34:50;14.80;;;9.37;;
74791;SDS011;63319;46.046;17.802;2022-12-10T00:37:53;16.20;;;9.40;;
74791;SDS011;63319;46.046;17.802;2022-12-10T00:40:56;15.00;;;9.55;;
74791;SDS011;63319;46.046;17.802;2022-12-10T00:43:59;13.85;;;8.45;;
74791;SDS011;63319;46.046;17.802;2022-12-10T00:47:02;12.70;;;8.52;;
74791;SDS011;63319;46.046;17.802;2022-12-10T00:50:05;12.73;;;8.83;;
74791;SDS011;63319;46.046;17.802;2022-12-10T00:53:09;14.37;;;9.23;;
74791;SDS011;63319;46.046;17.802;2022-12-10T00:56:12;14.27;;;8.70;;
74791;SDS011;63319;46.046;17.802;2022-12-10T00:59:16;14.52;;;8.73;;
74791;SDS011;63319;46.046;17.802;2022-12-10T01:02:19;14.02;;;9.18;;
74791;SDS011;63319;46.046;17.802;2022-12-10T01:05:24;13.27;;;8.83;;
74791;SDS011;63319;46.046;17.802;2022-12-10T01:08:27;12.93;;;8.27;;
74791;SDS011;63319;46.046;17.802;2022-12-10T01:11:31;14.50;;;8.88;;
74791;SDS011;63319;46.046;17.802;2022-12-10T01:14:35;15.65;;;9.23;;
74791;SDS011;63319;46.046;17.802;2022-12-10T01:17:38;13.40;;;8.45;;
74791;SDS011;63319;46.046;17.802;2022-12-10T01:20:41;14.10;;;9.23;;
74791;SDS011;63319;46.046;17.802;2022-12-10T01:23:45;13.63;;;8.93;;
74791;SDS011;63319;46.046;17.802;2022-12-10T01:26:50;13.43;;;8.52;;
74791;SDS011;63319;46.046;17.802;2022-12-10T01:29:53;12.50;;;8.35;;
74791;SDS011;63319;46.046;17.802;2022-12-10T01:32:55;14.05;;;8.50;;
74791;SDS011;63319;46.046;17.802;2022-12-10T01:36:05;14.50;;;8.50;;
74791;SDS011;63319;46.046;17.802;2022-12-10T01:39:14;14.57;;;8.80;;
74791;SDS011;63319;46.046;17.802;2022-12-10T01:42:18;13.05;;;8.55;;
74791;SDS011;63319;46.046;17.802;2022-12-10T01:45:21;13.07;;;7.85;;
74791;SDS011;63319;46.046;17.802;2022-12-10T01:48:24;14.27;;;8.80;;
74791;SDS011;63319;46.046;17.802;2022-12-10T01:51:28;11.93;;;8.53;;
74791;SDS011;63319;46.046;17.802;2022-12-10T01:54:33;13.70;;;8.87;;
74791;SDS011;63319;46.046;17.802;2022-12-10T01:57:38;12.43;;;8.63;;
74791;SDS011;63319;46.046;17.802;2022-12-10T02:01:04;12.30;;;8.07;;
74791;SDS011;63319;46.046;17.802;2022-12-10T02:14:08;13.32;;;7.80;;
74791;SDS011;63319;46.046;17.802;2022-12-10T02:17:17;13.95;;;8.55;;
74791;SDS011;63319;46.046;17.802;2022-12-10T02:23:32;11.87;;;7.73;;
74791;SDS011;63319;46.046;17.802;2022-12-10T02:30:17;13.00;;;8.50;;
74791;SDS011;63319;46.046;17.802;2022-12-10T02:33:20;12.63;;;8.10;;
74791;SDS011;63319;46.046;17.802;2022-12-10T02:36:31;13.35;;;8.35;;
74791;SDS011;63319;46.046;17.802;2022-12-10T02:39:38;12.27;;;7.67;;
74791;SDS011;63319;46.046;17.802;2022-12-10T02:42:44;12.93;;;7.80;;
74791;SDS011;63319;46.046;17.802;2022-12-10T02:45:51;11.68;;;8.05;;
74791;SDS011;63319;46.046;17.802;2022-12-10T02:48:54;15.13;;;8.60;;
74791;SDS011;63319;46.046;17.802;2022-12-10T02:51:59;12.63;;;8.25;;
74791;SDS011;63319;46.046;17.802;2022-12-10T02:55:11;12.93;;;7.80;;
74791;SDS011;63319;46.046;17.802;2022-12-10T02:58:21;11.67;;;8.17;;
74791;SDS011;63319;46.046;17.802;2022-12-10T03:05:01;12.77;;;8.07;;
74791;SDS011;63319;46.046;17.802;2022-12-10T03:11:19;11.93;;;7.90;;
74791;SDS011;63319;46.046;17.802;2022-12-10T03:14:27;11.90;;;8.17;;
74791;SDS011;63319;46.046;17.802;2022-12-10T03:17:34;12.10;;;7.70;;
74791;SDS011;63319;46.046;17.802;2022-12-10T03:20:41;11.45;;;7.60;;
74791;SDS011;63319;46.046;17.802;2022-12-10T03:23:46;12.93;;;8.35;;
74791;SDS011;63319;46.046;17.802;2022-12-10T03:26:51;10.77;;;6.70;;
74791;SDS011;63319;46.046;17.802;2022-12-10T03:29:56;13.93;;;7.90;;
74791;SDS011;63319;46.046;17.802;2022-12-10T03:33:00;11.68;;;7.88;;
74791;SDS011;63319;46.046;17.802;2022-12-10T03:36:04;12.55;;;7.35;;
74791;SDS011;63319;46.046;17.802;2022-12-10T03:39:09;10.75;;;7.22;;
74791;SDS011;63319;46.046;17.802;2022-12-10T03:42:13;11.13;;;7.07;;
74791;SDS011;63319;46.046;17.802;2022-12-10T03:45:16;11.37;;;6.90;;
74791;SDS011;63319;46.046;17.802;2022-12-10T03:48:19;10.77;;;7.63;;
74791;SDS011;63319;46.046;17.802;2022-12-10T03:51:22;11.43;;;7.40;;
74791;SDS011;63319;46.046;17.802;2022-12-10T03:54:25;10.73;;;6.90;;
74791;SDS011;63319;46.046;17.802;2022-12-10T03:57:30;13.10;;;8.37;;
74791;SDS011;63319;46.046;17.802;2022-12-10T04:00:32;12.10;;;7.10;;
74791;SDS011;63319;46.046;17.802;2022-12-10T04:03:36;11.77;;;7.40;;
74791;SDS011;63319;46.046;17.802;2022-12-10T04:06:40;12.02;;;7.70;;
74791;SDS011;63319;46.046;17.802;2022-12-10T04:09:44;11.00;;;7.13;;
74791;SDS011;63319;46.046;17.802;2022-12-10T04:12:46;10.90;;;6.87;;
74791;SDS011;63319;46.046;17.802;2022-12-10T04:16:09;11.43;;;7.10;;
74791;SDS011;63319;46.046;17.802;2022-12-10T04:19:30;10.63;;;6.97;;
74791;SDS011;63319;46.046;17.802;2022-12-10T04:22:33;11.23;;;7.45;;
74791;SDS011;63319;46.046;17.802;2022-12-10T04:25:55;11.63;;;7.78;;
74791;SDS011;63319;46.046;17.802;2022-12-10T04:29:16;10.97;;;7.10;;
74791;SDS011;63319;46.046;17.802;2022-12-10T04:32:19;10.73;;;7.27;;
74791;SDS011;63319;46.046;17.802;2022-12-10T04:35:23;11.38;;;7.35;;
74791;SDS011;63319;46.046;17.802;2022-12-10T04:38:25;11.50;;;7.15;;
74791;SDS011;63319;46.046;17.802;2022-12-10T04:41:28;10.63;;;7.28;;
74791;SDS011;63319;46.046;17.802;2022-12-10T04:44:32;10.43;;;6.87;;
74791;SDS011;63319;46.046;17.802;2022-12-10T04:47:35;10.97;;;7.73;;
74791;SDS011;63319;46.046;17.802;2022-12-10T04:50:38;11.15;;;7.15;;
74791;SDS011;63319;46.046;17.802;2022-12-10T04:53:40;10.93;;;6.70;;
74791;SDS011;63319;46.046;17.802;2022-12-10T04:56:44;10.35;;;6.75;;
74791;SDS011;63319;46.046;17.802;2022-12-10T04:59:48;10.53;;;6.73;;
74791;SDS011;63319;46.046;17.802;2022-12-10T05:02:51;10.20;;;6.73;;
74791;SDS011;63319;46.046;17.802;2022-12-10T05:05:54;11.27;;;6.38;;
74791;SDS011;63319;46.046;17.802;2022-12-10T05:08:57;11.75;;;6.97;;
74791;SDS011;63319;46.046;17.802;2022-12-10T05:11:59;12.40;;;7.38;;
74791;SDS011;63319;46.046;17.802;2022-12-10T05:15:03;12.63;;;7.10;;
74791;SDS011;63319;46.046;17.802;2022-12-10T05:18:07;11.33;;;6.73;;
74791;SDS011;63319;46.046;17.802;2022-12-10T05:21:10;11.32;;;7.25;;
74791;SDS011;63319;46.046;17.802;2022-12-10T05:24:16;10.43;;;6.47;;
74791;SDS011;63319;46.046;17.802;2022-12-10T05:27:20;10.80;;;7.10;;
74791;SDS011;63319;46.046;17.802;2022-12-10T05:30:30;9.93;;;6.70;;
74791;SDS011;63319;46.046;17.802;2022-12-10T05:33:37;10.23;;;6.30;;
74791;SDS011;63319;46.046;17.802;2022-12-10T05:36:40;10.13;;;6.60;;
74791;SDS011;63319;46.046;17.802;2022-12-10T05:39:43;11.27;;;6.70;;
74791;SDS011;63319;46.046;17.802;2022-12-10T05:42:46;10.68;;;6.80;;
74791;SDS011;63319;46.046;17.802;2022-12-10T05:45:48;10.70;;;6.67;;
74791;SDS011;63319;46.046;17.802;2022-12-10T05:48:51;10.87;;;6.83;;
74791;SDS011;63319;46.046;17.802;2022-12-10T05:51:54;9.35;;;6.20;;
74791;SDS011;63319;46.046;17.802;2022-12-10T05:54:58;10.57;;;6.35;;
74791;SDS011;63319;46.046;17.802;2022-12-10T05:58:01;10.40;;;5.78;;
74791;SDS011;63319;46.046;17.802;2022-12-10T06:01:11;9.77;;;6.10;;
74791;SDS011;63319;46.046;17.802;2022-12-10T06:04:16;10.03;;;6.80;;
74791;SDS011;63319;46.046;17.802;2022-12-10T06:07:19;10.48;;;6.40;;
74791;SDS011;63319;46.046;17.802;2022-12-10T06:10:21;9.85;;;6.07;;
74791;SDS011;63319;46.046;17.802;2022-12-10T06:13:24;10.25;;;6.38;;
74791;SDS011;63319;46.046;17.802;2022-12-10T06:16:27;11.07;;;6.23;;
74791;SDS011;63319;46.046;17.802;2022-12-10T06:19:30;10.47;;;6.10;;
74791;SDS011;63319;46.046;17.802;2022-12-10T06:22:33;10.35;;;6.85;;
74791;SDS011;63319;46.046;17.802;2022-12-10T06:25:37;9.55;;;5.50;;
74791;SDS011;63319;46.046;17.802;2022-12-10T06:28:41;11.43;;;7.28;;
74791;SDS011;63319;46.046;17.802;2022-12-10T06:31:46;9.40;;;5.70;;
74791;SDS011;63319;46.046;17.802;2022-12-10T06:34:48;9.80;;;6.50;;
74791;SDS011;63319;46.046;17.802;2022-12-10T06:37:51;9.90;;;6.50;;
74791;SDS011;63319;46.046;17.802;2022-12-10T06:40:54;9.80;;;6.28;;
74791;SDS011;63319;46.046;17.802;2022-12-10T06:43:57;10.52;;;6.28;;
74791;SDS011;63319;46.046;17.802;2022-12-10T06:47:00;10.57;;;6.87;;
74791;SDS011;63319;46.046;17.802;2022-12-10T06:50:03;9.53;;;6.00;;
74791;SDS011;63319;46.046;17.802;2022-12-10T06:53:07;8.93;;;6.18;;
74791;SDS011;63319;46.046;17.802;2022-12-10T06:56:13;10.68;;;6.25;;
74791;SDS011;63319;46.046;17.802;2022-12-10T06:59:18;9.77;;;6.15;;
74791;SDS011;63319;46.046;17.802;2022-12-10T07:02:22;10.13;;;6.30;;
74791;SDS011;63319;46.046;17.802;2022-12-10T07:05:25;9.27;;;6.23;;
74791;SDS011;63319;46.046;17.802;2022-12-10T07:08:28;10.60;;;5.97;;
74791;SDS011;63319;46.046;17.802;2022-12-10T07:11:31;9.55;;;6.25;;
74791;SDS011;63319;46.046;17.802;2022-12-10T07:14:34;10.40;;;6.75;;
74791;SDS011;63319;46.046;17.802;2022-12-10T07:17:37;10.80;;;6.50;;
74791;SDS011;63319;46.046;17.802;2022-12-10T07:20:40;8.93;;;5.43;;
74791;SDS011;63319;46.046;17.802;2022-12-10T07:23:43;8.48;;;5.18;;
74791;SDS011;63319;46.046;17.802;2022-12-10T07:26:46;10.98;;;5.80;;
74791;SDS011;63319;46.046;17.802;2022-12-10T07:29:49;9.50;;;5.90;;
74791;SDS011;63319;46.046;17.802;2022-12-10T07:32:52;8.93;;;5.63;;
74791;SDS011;63319;46.046;17.802;2022-12-10T07:35:55;9.07;;;5.67;;
74791;SDS011;63319;46.046;17.802;2022-12-10T07:38:58;9.20;;;5.55;;
74791;SDS011;63319;46.046;17.802;2022-12-10T07:42:01;9.13;;;5.38;;
74791;SDS011;63319;46.046;17.802;2022-12-10T07:45:04;8.50;;;5.50;;
74791;SDS011;63319;46.046;17.802;2022-12-10T07:48:07;8.67;;;5.67;;
74791;SDS011;63319;46.046;17.802;2022-12-10T07:51:10;9.47;;;5.60;;
74791;SDS011;63319;46.046;17.802;2022-12-10T07:54:17;8.40;;;5.68;;
74791;SDS011;63319;46.046;17.802;2022-12-10T07:57:24;8.07;;;5.35;;
74791;SDS011;63319;46.046;17.802;2022-12-10T08:00:27;9.02;;;5.25;;
74791;SDS011;63319;46.046;17.802;2022-12-10T08:03:30;9.73;;;6.07;;
74791;SDS011;63319;46.046;17.802;2022-12-10T08:06:32;10.57;;;6.10;;
74791;SDS011;63319;46.046;17.802;2022-12-10T08:09:35;9.85;;;6.28;;
74791;SDS011;63319;46.046;17.802;2022-12-10T08:12:38;8.05;;;5.10;;
74791;SDS011;63319;46.046;17.802;2022-12-10T08:15:41;8.63;;;5.35;;
74791;SDS011;63319;46.046;17.802;2022-12-10T08:18:44;8.97;;;5.57;;
74791;SDS011;63319;46.046;17.802;2022-12-10T08:21:47;9.00;;;5.83;;
74791;SDS011;63319;46.046;17.802;2022-12-10T08:24:50;9.13;;;5.57;;
74791;SDS011;63319;46.046;17.802;2022-12-10T08:27:53;9.82;;;5.30;;
74791;SDS011;63319;46.046;17.802;2022-12-10T08:30:56;8.68;;;5.25;;
74791;SDS011;63319;46.046;17.802;2022-12-10T08:33:59;8.63;;;4.83;;
74791;SDS011;63319;46.046;17.802;2022-12-10T08:37:01;9.33;;;6.00;;
74791;SDS011;63319;46.046;17.802;2022-12-10T08:40:13;9.18;;;5.68;;
74791;SDS011;63319;46.046;17.802;2022-12-10T08:43:16;8.63;;;5.35;;
74791;SDS011;63319;46.046;17.802;2022-12-10T08:46:19;8.40;;;5.15;;
74791;SDS011;63319;46.046;17.802;2022-12-10T08:49:22;8.60;;;5.63;;
74791;SDS011;63319;46.046;17.802;2022-12-10T08:52:24;9.20;;;5.73;;
74791;SDS011;63319;46.046;17.802;2022-12-10T08:55:27;8.70;;;5.70;;
74791;SDS011;63319;46.046;17.802;2022-12-10T08:58:30;9.10;;;5.53;;
74791;SDS011;63319;46.046;17.802;2022-12-10T09:01:34;8.15;;;5.05;;
74791;SDS011;63319;46.046;17.802;2022-12-10T09:04:37;8.50;;;5.30;;
74791;SDS011;63319;46.046;17.802;2022-12-10T09:07:42;9.10;;;5.53;;
74791;SDS011;63319;46.046;17.802;2022-12-10T09:10:45;8.50;;;5.45;;
74791;SDS011;63319;46.046;17.802;2022-12-10T09:13:48;7.97;;;5.00;;
74791;SDS011;63319;46.046;17.802;2022-12-10T09:16:50;9.35;;;5.60;;
74791;SDS011;63319;46.046;17.802;2022-12-10T09:19:53;8.00;;;5.07;;
74791;SDS011;63319;46.046;17.802;2022-12-10T09:22:56;7.83;;;4.63;;
74791;SDS011;63319;46.046;17.802;2022-12-10T09:26:04;8.38;;;5.32;;
74791;SDS011;63319;46.046;17.802;2022-12-10T09:29:08;8.93;;;4.80;;
74791;SDS011;63319;46.046;17.802;2022-12-10T09:32:11;9.23;;;5.43;;
74791;SDS011;63319;46.046;17.802;2022-12-10T09:35:14;9.03;;;5.80;;
74791;SDS011;63319;46.046;17.802;2022-12-10T09:38:17;7.83;;;4.77;;
74791;SDS011;63319;46.046;17.802;2022-12-10T09:41:42;9.60;;;4.80;;
74791;SDS011;63319;46.046;17.802;2022-12-10T09:48:28;8.68;;;5.22;;
74791;SDS011;63319;46.046;17.802;2022-12-10T09:51:36;8.40;;;5.00;;
74791;SDS011;63319;46.046;17.802;2022-12-10T09:54:44;7.93;;;4.70;;
74791;SDS011;63319;46.046;17.802;2022-12-10T09:57:51;8.02;;;4.78;;
74791;SDS011;63319;46.046;17.802;2022-12-10T10:01:03;7.72;;;5.10;;
74791;SDS011;63319;46.046;17.802;2022-12-10T10:04:08;8.23;;;5.25;;
74791;SDS011;63319;46.046;17.802;2022-12-10T10:07:15;6.67;;;4.50;;
74791;SDS011;63319;46.046;17.802;2022-12-10T10:10:27;8.33;;;5.23;;
74791;SDS011;63319;46.046;17.802;2022-12-10T10:13:43;8.57;;;5.03;;
74791;SDS011;63319;46.046;17.802;2022-12-10T10:17:10;8.13;;;4.65;;
74791;SDS011;63319;46.046;17.802;2022-12-10T10:20:18;8.50;;;4.43;;
74791;SDS011;63319;46.046;17.802;2022-12-10T10:23:21;8.03;;;4.73;;
74791;SDS011;63319;46.046;17.802;2022-12-10T10:26:25;8.50;;;4.83;;
74791;SDS011;63319;46.046;17.802;2022-12-10T10:29:29;8.32;;;4.70;;
74791;SDS011;63319;46.046;17.802;2022-12-10T10:38:50;7.93;;;4.87;;
74791;SDS011;63319;46.046;17.802;2022-12-10T10:41:53;9.17;;;5.50;;
74791;SDS011;63319;46.046;17.802;2022-12-10T10:44:59;8.98;;;5.28;;
74791;SDS011;63319;46.046;17.802;2022-12-10T10:54:38;8.07;;;4.37;;
74791;SDS011;63319;46.046;17.802;2022-12-10T10:57:42;6.87;;;4.47;;
74791;SDS011;63319;46.046;17.802;2022-12-10T11:00:56;8.70;;;4.90;;
74791;SDS011;63319;46.046;17.802;2022-12-10T11:04:01;7.38;;;4.63;;
74791;SDS011;63319;46.046;17.802;2022-12-10T11:07:05;8.18;;;4.90;;
74791;SDS011;63319;46.046;17.802;2022-12-10T11:10:23;8.23;;;4.43;;
74791;SDS011;63319;46.046;17.802;2022-12-10T11:13:27;7.33;;;4.20;;
74791;SDS011;63319;46.046;17.802;2022-12-10T11:16:34;7.60;;;4.60;;
74791;SDS011;63319;46.046;17.802;2022-12-10T11:19:45;7.97;;;4.72;;
74791;SDS011;63319;46.046;17.802;2022-12-10T11:22:59;7.30;;;4.35;;
74791;SDS011;63319;46.046;17.802;2022-12-10T11:35:55;7.72;;;4.45;;
74791;SDS011;63319;46.046;17.802;2022-12-10T11:49:41;7.93;;;4.50;;
74791;SDS011;63319;46.046;17.802;2022-12-10T11:59:46;8.70;;;5.20;;
74791;SDS011;63319;46.046;17.802;2022-12-10T12:13:08;6.78;;;3.97;;
74791;SDS011;63319;46.046;17.802;2022-12-10T12:16:20;7.73;;;4.70;;
74791;SDS011;63319;46.046;17.802;2022-12-10T12:19:43;6.97;;;4.30;;
74791;SDS011;63319;46.046;17.802;2022-12-10T12:22:54;8.13;;;4.75;;
74791;SDS011;63319;46.046;17.802;2022-12-10T12:26:06;10.27;;;4.07;;
74791;SDS011;63319;46.046;17.802;2022-12-10T12:29:16;7.55;;;4.35;;
74791;SDS011;63319;46.046;17.802;2022-12-10T12:32:35;7.50;;;4.27;;
74791;SDS011;63319;46.046;17.802;2022-12-10T12:36:04;6.70;;;3.90;;
74791;SDS011;63319;46.046;17.802;2022-12-10T12:45:36;6.93;;;4.18;;
74791;SDS011;63319;46.046;17.802;2022-12-10T12:49:06;7.83;;;4.60;;
74791;SDS011;63319;46.046;17.802;2022-12-10T12:52:25;7.50;;;4.70;;
74791;SDS011;63319;46.046;17.802;2022-12-10T12:56:07;7.35;;;4.60;;
74791;SDS011;63319;46.046;17.802;2022-12-10T13:06:25;7.60;;;4.57;;
74791;SDS011;63319;46.046;17.802;2022-12-10T13:09:31;6.73;;;3.90;;
74791;SDS011;63319;46.046;17.802;2022-12-10T13:15:43;6.18;;;3.80;;
74791;SDS011;63319;46.046;17.802;2022-12-10T13:18:46;7.90;;;4.35;;
74791;SDS011;63319;46.046;17.802;2022-12-10T13:34:34;7.35;;;4.00;;
74791;SDS011;63319;46.046;17.802;2022-12-10T13:40:59;6.70;;;4.27;;
74791;SDS011;63319;46.046;17.802;2022-12-10T13:47:52;7.43;;;4.30;;
74791;SDS011;63319;46.046;17.802;2022-12-10T13:51:00;7.82;;;4.47;;
74791;SDS011;63319;46.046;17.802;2022-12-10T14:07:29;6.75;;;4.30;;
74791;SDS011;63319;46.046;17.802;2022-12-10T14:10:34;7.10;;;4.07;;
74791;SDS011;63319;46.046;17.802;2022-12-10T14:13:40;6.80;;;3.80;;
74791;SDS011;63319;46.046;17.802;2022-12-10T14:16:45;6.57;;;3.67;;
74791;SDS011;63319;46.046;17.802;2022-12-10T14:19:49;6.95;;;3.92;;
74791;SDS011;63319;46.046;17.802;2022-12-10T14:22:55;7.53;;;4.10;;
74791;SDS011;63319;46.046;17.802;2022-12-10T14:26:25;6.33;;;3.80;;
74791;SDS011;63319;46.046;17.802;2022-12-10T14:29:30;6.90;;;4.30;;
74791;SDS011;63319;46.046;17.802;2022-12-10T14:32:34;6.95;;;4.05;;
74791;SDS011;63319;46.046;17.802;2022-12-10T14:35:39;7.57;;;4.18;;
74791;SDS011;63319;46.046;17.802;2022-12-10T14:38:44;6.55;;;3.35;;
74791;SDS011;63319;46.046;17.802;2022-12-10T14:41:49;7.30;;;4.17;;
74791;SDS011;63319;46.046;17.802;2022-12-10T14:45:02;6.67;;;3.73;;
74791;SDS011;63319;46.046;17.802;2022-12-10T14:48:09;6.18;;;3.55;;
74791;SDS011;63319;46.046;17.802;2022-12-10T14:51:16;7.57;;;3.90;;
74791;SDS011;63319;46.046;17.802;2022-12-10T14:54:30;6.38;;;3.95;;
74791;SDS011;63319;46.046;17.802;2022-12-10T14:57:40;6.63;;;3.97;;
74791;SDS011;63319;46.046;17.802;2022-12-10T15:00:48;6.40;;;3.60;;
74791;SDS011;63319;46.046;17.802;2022-12-10T15:03:51;6.93;;;4.00;;
74791;SDS011;63319;46.046;17.802;2022-12-10T15:06:58;7.13;;;3.80;;
74791;SDS011;63319;46.046;17.802;2022-12-10T15:10:04;7.30;;;4.00;;
74791;SDS011;63319;46.046;17.802;2022-12-10T15:13:27;7.03;;;4.00;;
74791;SDS011;63319;46.046;17.802;2022-12-10T15:16:42;6.53;;;3.90;;
74791;SDS011;63319;46.046;17.802;2022-12-10T15:19:50;6.35;;;3.92;;
74791;SDS011;63319;46.046;17.802;2022-12-10T15:22:55;7.05;;;3.70;;
74791;SDS011;63319;46.046;17.802;2022-12-10T15:26:24;6.28;;;3.65;;
74791;SDS011;63319;46.046;17.802;2022-12-10T15:29:31;6.83;;;3.73;;
74791;SDS011;63319;46.046;17.802;2022-12-10T15:32:37;6.77;;;4.13;;
74791;SDS011;63319;46.046;17.802;2022-12-10T15:35:40;6.68;;;4.03;;
74791;SDS011;63319;46.046;17.802;2022-12-10T15:38:43;6.15;;;3.55;;
74791;SDS011;63319;46.046;17.802;2022-12-10T15:44:56;7.17;;;3.57;;
74791;SDS011;63319;46.046;17.802;2022-12-10T15:48:09;6.93;;;4.07;;
74791;SDS011;63319;46.046;17.802;2022-12-10T15:51:14;6.68;;;3.90;;
74791;SDS011;63319;46.046;17.802;2022-12-10T15:54:22;7.13;;;3.97;;
74791;SDS011;63319;46.046;17.802;2022-12-10T15:57:34;6.38;;;3.70;;
74791;SDS011;63319;46.046;17.802;2022-12-10T16:00:39;6.47;;;3.60;;
74791;SDS011;63319;46.046;17.802;2022-12-10T16:03:47;6.97;;;3.90;;
74791;SDS011;63319;46.046;17.802;2022-12-10T16:06:50;7.07;;;4.10;;
74791;SDS011;63319;46.046;17.802;2022-12-10T16:09:55;6.95;;;3.75;;
74791;SDS011;63319;46.046;17.802;2022-12-10T16:13:02;6.50;;;3.40;;
74791;SDS011;63319;46.046;17.802;2022-12-10T16:16:08;6.63;;;3.70;;
74791;SDS011;63319;46.046;17.802;2022-12-10T16:19:13;6.00;;;3.23;;
74791;SDS011;63319;46.046;17.802;2022-12-10T16:22:18;6.40;;;3.75;;
74791;SDS011;63319;46.046;17.802;2022-12-10T16:25:22;6.50;;;3.60;;
74791;SDS011;63319;46.046;17.802;2022-12-10T16:28:29;6.50;;;3.67;;
74791;SDS011;63319;46.046;17.802;2022-12-10T16:31:33;5.97;;;3.63;;
74791;SDS011;63319;46.046;17.802;2022-12-10T16:34:36;6.57;;;3.63;;
74791;SDS011;63319;46.046;17.802;2022-12-10T16:37:41;6.25;;;3.42;;
74791;SDS011;63319;46.046;17.802;2022-12-10T16:40:46;6.05;;;3.72;;
74791;SDS011;63319;46.046;17.802;2022-12-10T16:43:55;6.68;;;3.17;;
74791;SDS011;63319;46.046;17.802;2022-12-10T16:46:59;7.47;;;3.27;;
74791;SDS011;63319;46.046;17.802;2022-12-10T16:50:03;6.20;;;3.60;;
74791;SDS011;63319;46.046;17.802;2022-12-10T16:56:19;6.38;;;3.90;;
74791;SDS011;63319;46.046;17.802;2022-12-10T16:59:24;6.82;;;3.90;;
74791;SDS011;63319;46.046;17.802;2022-12-10T17:02:27;6.90;;;3.83;;
74791;SDS011;63319;46.046;17.802;2022-12-10T17:05:33;6.50;;;3.13;;
74791;SDS011;63319;46.046;17.802;2022-12-10T17:08:39;6.05;;;3.78;;
74791;SDS011;63319;46.046;17.802;2022-12-10T17:11:44;5.93;;;3.60;;
74791;SDS011;63319;46.046;17.802;2022-12-10T17:14:48;6.45;;;3.95;;
74791;SDS011;63319;46.046;17.802;2022-12-10T17:17:51;6.00;;;3.57;;
74791;SDS011;63319;46.046;17.802;2022-12-10T17:20:54;5.77;;;3.17;;
74791;SDS011;63319;46.046;17.802;2022-12-10T17:23:58;6.63;;;3.80;;
74791;SDS011;63319;46.046;17.802;2022-12-10T17:27:10;6.10;;;3.85;;
74791;SDS011;63319;46.046;17.802;2022-12-10T17:30:25;6.47;;;3.50;;
74791;SDS011;63319;46.046;17.802;2022-12-10T17:33:29;6.87;;;3.90;;
74791;SDS011;63319;46.046;17.802;2022-12-10T17:36:32;6.87;;;3.73;;
74791;SDS011;63319;46.046;17.802;2022-12-10T17:39:35;5.32;;;3.15;;
74791;SDS011;63319;46.046;17.802;2022-12-10T17:42:38;5.82;;;3.03;;
74791;SDS011;63319;46.046;17.802;2022-12-10T17:45:41;5.70;;;2.95;;
74791;SDS011;63319;46.046;17.802;2022-12-10T17:48:45;5.80;;;3.23;;
74791;SDS011;63319;46.046;17.802;2022-12-10T17:51:49;6.10;;;3.07;;
74791;SDS011;63319;46.046;17.802;2022-12-10T17:54:51;5.85;;;3.53;;
74791;SDS011;63319;46.046;17.802;2022-12-10T17:57:55;5.25;;;2.85;;
74791;SDS011;63319;46.046;17.802;2022-12-10T18:01:00;5.85;;;3.33;;
74791;SDS011;63319;46.046;17.802;2022-12-10T18:04:04;6.17;;;3.53;;
74791;SDS011;63319;46.046;17.802;2022-12-10T18:07:11;5.33;;;2.83;;
74791;SDS011;63319;46.046;17.802;2022-12-10T18:10:23;7.45;;;3.85;;
74791;SDS011;63319;46.046;17.802;2022-12-10T18:13:28;6.25;;;3.60;;
74791;SDS011;63319;46.046;17.802;2022-12-10T18:16:48;5.68;;;3.30;;
74791;SDS011;63319;46.046;17.802;2022-12-10T18:19:51;6.03;;;3.37;;
74791;SDS011;63319;46.046;17.802;2022-12-10T18:22:55;5.63;;;3.20;;
74791;SDS011;63319;46.046;17.802;2022-12-10T18:25:59;6.20;;;3.47;;
74791;SDS011;63319;46.046;17.802;2022-12-10T18:29:03;6.22;;;3.10;;
74791;SDS011;63319;46.046;17.802;2022-12-10T18:32:06;5.97;;;3.30;;
74791;SDS011;63319;46.046;17.802;2022-12-10T18:35:12;5.97;;;3.47;;
74791;SDS011;63319;46.046;17.802;2022-12-10T18:38:16;5.60;;;3.13;;
74791;SDS011;63319;46.046;17.802;2022-12-10T18:41:20;5.70;;;3.15;;
74791;SDS011;63319;46.046;17.802;2022-12-10T18:44:25;5.47;;;3.03;;
74791;SDS011;63319;46.046;17.802;2022-12-10T18:47:31;5.82;;;3.42;;
74791;SDS011;63319;46.046;17.802;2022-12-10T18:50:34;5.37;;;3.03;;
74791;SDS011;63319;46.046;17.802;2022-12-10T18:53:37;5.30;;;2.90;;
74791;SDS011;63319;46.046;17.802;2022-12-10T18:56:40;5.72;;;3.05;;
74791;SDS011;63319;46.046;17.802;2022-12-10T18:59:52;6.20;;;3.38;;
74791;SDS011;63319;46.046;17.802;2022-12-10T19:02:56;6.03;;;3.30;;
74791;SDS011;63319;46.046;17.802;2022-12-10T19:06:03;5.63;;;3.20;;
74791;SDS011;63319;46.046;17.802;2022-12-10T19:09:14;6.37;;;3.50;;
74791;SDS011;63319;46.046;17.802;2022-12-10T19:12:21;6.32;;;3.33;;
74791;SDS011;63319;46.046;17.802;2022-12-10T19:15:26;6.20;;;3.22;;
74791;SDS011;63319;46.046;17.802;2022-12-10T19:18:30;5.10;;;3.00;;
74791;SDS011;63319;46.046;17.802;2022-12-10T19:21:34;6.57;;;3.40;;
74791;SDS011;63319;46.046;17.802;2022-12-10T19:24:37;7.13;;;3.70;;
74791;SDS011;63319;46.046;17.802;2022-12-10T19:27:41;6.38;;;3.58;;
74791;SDS011;63319;46.046;17.802;2022-12-10T19:30:45;6.13;;;3.00;;
74791;SDS011;63319;46.046;17.802;2022-12-10T19:33:49;6.18;;;3.40;;
74791;SDS011;63319;46.046;17.802;2022-12-10T19:36:53;5.37;;;3.10;;
74791;SDS011;63319;46.046;17.802;2022-12-10T19:39:56;5.53;;;3.47;;
74791;SDS011;63319;46.046;17.802;2022-12-10T19:43:00;6.07;;;3.38;;
74791;SDS011;63319;46.046;17.802;2022-12-10T19:46:10;5.28;;;2.92;;
74791;SDS011;63319;46.046;17.802;2022-12-10T19:49:17;5.50;;;3.13;;
74791;SDS011;63319;46.046;17.802;2022-12-10T19:52:22;5.73;;;3.03;;
74791;SDS011;63319;46.046;17.802;2022-12-10T19:55:26;5.43;;;3.07;;
74791;SDS011;63319;46.046;17.802;2022-12-10T19:58:32;6.03;;;3.28;;
74791;SDS011;63319;46.046;17.802;2022-12-10T20:01:36;5.80;;;3.25;;
74791;SDS011;63319;46.046;17.802;2022-12-10T20:04:40;5.43;;;2.95;;
74791;SDS011;63319;46.046;17.802;2022-12-10T20:07:44;6.10;;;3.07;;
74791;SDS011;63319;46.046;17.802;2022-12-10T20:10:49;5.77;;;3.23;;
74791;SDS011;63319;46.046;17.802;2022-12-10T20:13:53;5.53;;;3.10;;
74791;SDS011;63319;46.046;17.802;2022-12-10T20:16:56;5.60;;;3.15;;
74791;SDS011;63319;46.046;17.802;2022-12-10T20:20:00;6.25;;;3.17;;
74791;SDS011;63319;46.046;17.802;2022-12-10T20:23:03;5.70;;;3.00;;
74791;SDS011;63319;46.046;17.802;2022-12-10T20:26:16;5.70;;;3.00;;
74791;SDS011;63319;46.046;17.802;2022-12-10T20:29:30;5.35;;;3.08;;
74791;SDS011;63319;46.046;17.802;2022-12-10T20:32:34;6.07;;;2.97;;